Boligee, Alabama
Current Conditions -  °F | °C
As of 4:15 PM on Monday 24 Nov 2014 (Local Time) from KDYA Reporting Station
Clear Clear  
Wind Chill: 63°   Ceiling: Unl
Heat Index: 63°   Visibility: 10mi
Dew Point: 42°   Wind: 7mph
Humidity: 46%   Direction: 320°NW
Pressure: 29.93"   Gusts: NA
Location:  32.76°N, 88.03°W
Report Text: KDYA 242215Z AUTO 32006KT 10SM CLR 17/05 A2993 RMK AO2 T01700053
Loading
Personal Weather Stations






























Interactive Weather Map New forecast layout! Learn more

10-Day Weather Forecast

Advertisements
Track Severe Weather on mobile